Time;durP1;ratioP1;P1;durP2;ratioP2;P2;SDS_P1;SDS_P2;PMS_P1;PMS_P2;Temp;Humidity;BMP_temperature;BMP_pressure;BME280_temperature;BME280_humidity;BME280_pressure;Samples;Min_cycle;Max_cycle;Signal;HPM_P1;HPM_P2
2023/01/25 00:01:51;;;;;;;39.13;30.57;;;0.60;88.20;;;;;;4992938;28;20217;-86
2023/01/25 00:04:18;;;;;;;42.30;31.03;;;0.70;88.30;;;;;;4992874;28;20284;-86
2023/01/25 00:06:43;;;;;;;35.70;31.80;;;0.70;88.30;;;;;;4993917;28;20525;-86
2023/01/25 00:09:10;;;;;;;35.57;29.63;;;0.70;88.50;;;;;;4992790;28;20214;-86
2023/01/25 00:11:36;;;;;;;38.87;31.57;;;0.60;88.50;;;;;;4994015;28;20548;-88
2023/01/25 00:14:02;;;;;;;36.90;30.73;;;0.50;88.60;;;;;;4993803;28;20209;-86
2023/01/25 00:16:28;;;;;;;41.33;31.67;;;0.60;88.70;;;;;;4994084;28;20170;-86
2023/01/25 00:18:53;;;;;;;39.50;31.93;;;0.60;89.00;;;;;;4992612;28;20173;-87
2023/01/25 00:21:24;;;;;;;39.13;30.40;;;0.70;88.90;;;;;;4994314;28;20537;-88
2023/01/25 00:23:50;;;;;;;41.57;31.30;;;0.40;88.90;;;;;;4992751;28;20317;-86
2023/01/25 00:26:16;;;;;;;41.87;29.80;;;0.40;89.00;;;;;;4993729;28;20179;-85
2023/01/25 00:28:41;;;;;;;42.37;32.47;;;0.40;89.10;;;;;;4993858;28;20180;-84
2023/01/25 00:31:10;;;;;;;44.47;35.40;;;0.30;89.70;;;;;;4992507;28;20185;-85
2023/01/25 00:33:48;;;;;;;46.43;33.80;;;0.40;89.70;;;;;;4993633;28;20291;-86
2023/01/25 00:36:39;;;;;;;49.77;35.43;;;0.30;89.70;;;;;;4992474;28;20248;-85
2023/01/25 00:39:07;;;;;;;45.20;34.27;;;0.50;89.90;;;;;;4992373;28;20217;-86
2023/01/25 00:41:33;;;;;;;45.37;34.77;;;0.40;89.80;;;;;;4992505;28;20272;-85
2023/01/25 00:43:58;;;;;;;46.53;35.07;;;0.30;89.70;;;;;;4992017;28;20367;-85
2023/01/25 00:46:24;;;;;;;48.97;36.53;;;0.30;90.00;;;;;;4992500;28;20181;-86
2023/01/25 00:48:53;;;;;;;52.40;37.27;;;0.30;90.20;;;;;;4992358;28;20189;-86
2023/01/25 00:51:19;;;;;;;47.87;36.23;;;0.30;90.30;;;;;;4993438;28;20177;-86
2023/01/25 00:53:45;;;;;;;37.63;28.67;;;0.30;90.30;;;;;;4993533;28;20647;-85
2023/01/25 00:56:10;;;;;;;51.87;36.47;;;0.20;90.60;;;;;;4992378;28;20264;-85
2023/01/25 00:58:36;;;;;;;50.80;36.13;;;0.20;90.70;;;;;;4994798;28;20177;-85
2023/01/25 01:01:01;;;;;;;50.43;37.23;;;0.20;90.50;;;;;;4996917;28;20169;-85
2023/01/25 01:03:27;;;;;;;46.87;37.00;;;0.30;90.60;;;;;;4995788;28;20215;-85
2023/01/25 01:06:05;;;;;;;48.33;36.90;;;0.40;90.70;;;;;;4997051;28;20275;-85
2023/01/25 01:08:37;;;;;;;54.50;38.03;;;0.40;90.40;;;;;;4995538;28;20554;-85
2023/01/25 01:11:05;;;;;;;48.67;37.57;;;0.40;90.30;;;;;;4995455;28;20594;-85
2023/01/25 01:13:31;;;;;;;45.13;33.97;;;0.40;90.30;;;;;;4995375;28;20271;-85
2023/01/25 01:16:01;;;;;;;43.77;32.57;;;0.30;90.30;;;;;;4996953;28;20181;-87
2023/01/25 01:18:27;;;;;;;46.17;34.80;;;0.10;90.50;;;;;;4996279;28;20194;-84
2023/01/25 01:20:53;;;;;;;46.70;35.27;;;0.10;90.80;;;;;;4996552;28;20594;-85
2023/01/25 01:23:19;;;;;;;49.63;35.33;;;0.00;91.00;;;;;;4996156;28;20200;-85
2023/01/25 01:25:45;;;;;;;44.77;33.73;;;0.00;91.20;;;;;;4995386;28;20196;-87
2023/01/25 01:28:12;;;;;;;46.27;34.97;;;0.00;91.20;;;;;;4996743;28;20651;-85
2023/01/25 01:30:38;;;;;;;46.23;34.43;;;0.00;91.40;;;;;;4996686;28;20188;-85
2023/01/25 01:33:04;;;;;;;44.47;31.70;;;0.10;91.40;;;;;;4996297;28;20221;-86
2023/01/25 01:35:30;;;;;;;45.80;32.43;;;0.00;91.30;;;;;;4996745;28;20178;-86
2023/01/25 01:37:56;;;;;;;41.67;33.17;;;0.10;91.40;;;;;;4996299;28;20182;-85
2023/01/25 01:40:22;;;;;;;38.87;30.27;;;0.00;91.30;;;;;;4996318;28;20181;-86
2023/01/25 01:43:03;;;;;;;39.23;29.30;;;0.00;91.40;;;;;;4994824;28;20182;-85
2023/01/25 01:45:50;;;;;;;36.90;28.90;;;0.00;91.30;;;;;;4996525;28;20223;-85
2023/01/25 01:49:04;;;;;;;40.67;32.40;;;-0.10;91.50;;;;;;4994994;28;20235;-85
2023/01/25 01:51:32;;;;;;;39.37;31.43;;;-0.10;91.70;;;;;;4983885;28;20201;-85
2023/01/25 01:54:10;;;;;;;39.07;29.53;;;-0.10;91.60;;;;;;4995985;28;20211;-86
2023/01/25 01:56:59;;;;;;;36.37;28.63;;;-0.10;91.80;;;;;;4994787;28;20250;-85
2023/01/25 01:59:38;;;;;;;37.13;29.83;;;-0.10;91.80;;;;;;4996112;28;20160;-86
2023/01/25 02:02:03;;;;;;;35.63;29.73;;;-0.10;91.70;;;;;;4995954;28;20538;-86
2023/01/25 02:04:29;;;;;;;37.33;30.27;;;-0.10;91.70;;;;;;4994523;28;20208;-86
2023/01/25 02:07:02;;;;;;;40.93;28.83;;;-0.10;91.80;;;;;;4995857;28;20183;-86
2023/01/25 02:09:30;;;;;;;36.40;28.43;;;0.00;91.80;;;;;;4993843;28;20174;-86
2023/01/25 02:11:57;;;;;;;39.17;30.90;;;0.00;91.80;;;;;;4994299;28;20183;-85
2023/01/25 02:14:22;;;;;;;39.80;30.10;;;0.00;91.60;;;;;;4994422;28;20217;-85
2023/01/25 02:16:48;;;;;;;38.33;31.23;;;0.00;91.70;;;;;;4995475;28;20175;-85
2023/01/25 02:19:30;;;;;;;43.13;33.40;;;0.00;91.80;;;;;;4995546;28;20650;-86
2023/01/25 02:21:58;;;;;;;41.50;31.60;;;-0.10;91.80;;;;;;4994397;28;20536;-86
2023/01/25 02:24:28;;;;;;;31.13;26.23;;;-0.10;91.90;;;;;;4994199;28;20218;-87
2023/01/25 02:26:54;;;;;;;36.63;27.77;;;-0.20;92.10;;;;;;4994248;28;20168;-86
2023/01/25 02:29:23;;;;;;;43.53;31.47;;;-0.10;92.30;;;;;;4995435;28;20206;-86
2023/01/25 02:31:51;;;;;;;44.77;32.77;;;-0.20;92.30;;;;;;4994173;28;20233;-86
2023/01/25 02:34:17;;;;;;;41.83;29.27;;;0.00;92.30;;;;;;4993925;28;20228;-87
2023/01/25 02:36:43;;;;;;;38.73;30.37;;;-0.10;92.30;;;;;;4994172;28;20172;-87
2023/01/25 02:39:14;;;;;;;42.83;31.27;;;-0.10;92.30;;;;;;4995385;28;20171;-86
2023/01/25 02:41:43;;;;;;;40.60;32.23;;;-0.10;92.30;;;;;;4994031;28;20168;-85
2023/01/25 02:44:24;;;;;;;38.43;30.13;;;-0.10;92.30;;;;;;4993681;28;20261;-86
2023/01/25 02:46:50;;;;;;;39.87;30.87;;;0.00;92.20;;;;;;4993893;28;20170;-86
2023/01/25 02:49:16;;;;;;;42.17;31.47;;;-0.10;92.20;;;;;;4993718;28;20204;-86
2023/01/25 02:51:46;;;;;;;42.40;31.83;;;-0.10;92.20;;;;;;4994934;28;20267;-85
2023/01/25 02:54:14;;;;;;;43.77;31.90;;;-0.10;92.20;;;;;;4993278;28;20301;-86
2023/01/25 02:56:40;;;;;;;47.00;33.00;;;-0.10;92.20;;;;;;4993722;28;20173;-86
2023/01/25 02:59:07;;;;;;;42.37;32.17;;;-0.10;92.20;;;;;;4995027;28;20645;-86
2023/01/25 03:01:37;;;;;;;46.13;34.73;;;-0.10;92.10;;;;;;4994883;28;20161;-87
2023/01/25 03:04:04;;;;;;;51.60;35.77;;;-0.10;92.20;;;;;;4993377;28;20204;-86
2023/01/25 03:06:30;;;;;;;46.20;32.47;;;-0.20;92.30;;;;;;4995102;28;20173;-86
2023/01/25 03:08:56;;;;;;;48.40;33.27;;;-0.30;92.50;;;;;;4994687;28;20187;-86
2023/01/25 03:11:21;;;;;;;44.37;33.30;;;-0.30;92.50;;;;;;4993335;28;20186;-86
2023/01/25 03:13:47;;;;;;;44.37;32.33;;;-0.30;92.50;;;;;;4994719;28;20210;-85
2023/01/25 03:16:13;;;;;;;48.57;33.37;;;-0.30;92.50;;;;;;4993292;28;20176;-86
2023/01/25 03:18:39;;;;;;;44.47;33.07;;;-0.30;92.50;;;;;;4993155;28;20545;-86
2023/01/25 03:21:09;;;;;;;51.20;34.10;;;-0.40;92.50;;;;;;4993570;28;20211;-85
2023/01/25 03:23:35;;;;;;;46.17;33.10;;;-0.40;92.50;;;;;;4994315;28;20623;-86
2023/01/25 03:26:10;;;;;;;45.47;32.70;;;-0.30;92.60;;;;;;4994225;28;20180;-86
2023/01/25 03:28:36;;;;;;;46.93;32.43;;;-0.30;92.40;;;;;;4992986;28;20183;-86
2023/01/25 03:31:01;;;;;;;49.20;33.73;;;-0.40;92.30;;;;;;4994219;28;20734;-86
2023/01/25 03:33:27;;;;;;;46.40;33.57;;;-0.30;92.40;;;;;;4993979;28;20215;-86
2023/01/25 03:35:54;;;;;;;49.10;32.83;;;-0.30;92.40;;;;;;4994329;28;20179;-85
2023/01/25 03:38:20;;;;;;;44.43;32.00;;;-0.30;92.30;;;;;;4994122;28;20186;-85
2023/01/25 03:40:46;;;;;;;51.10;35.00;;;-0.40;92.20;;;;;;4994111;28;20179;-85
2023/01/25 03:43:12;;;;;;;49.13;35.67;;;-0.30;92.40;;;;;;4992519;28;20217;-85
2023/01/25 03:45:37;;;;;;;46.60;34.70;;;-0.30;92.50;;;;;;5031536;23;20636;-87
2023/01/25 03:48:03;;;;;;;48.93;35.27;;;-0.40;92.20;;;;;;5013416;28;20172;-87
2023/01/25 03:50:28;;;;;;;50.07;35.03;;;-0.40;92.30;;;;;;5013381;28;20229;-87
2023/01/25 03:53:15;;;;;;;54.33;37.60;;;-0.40;92.30;;;;;;5013365;28;20217;-87
2023/01/25 03:55:41;;;;;;;51.40;34.10;;;-0.30;92.40;;;;;;5012043;28;20276;-87
2023/01/25 03:58:07;;;;;;;54.60;35.37;;;-0.40;92.40;;;;;;5012188;28;20211;-87
2023/01/25 04:00:32;;;;;;;51.23;36.53;;;-0.50;92.40;;;;;;5013470;28;20240;-87
2023/01/25 04:02:58;;;;;;;49.07;34.87;;;-0.40;92.50;;;;;;5013345;28;20247;-87
2023/01/25 04:05:23;;;;;;;47.37;35.23;;;-0.40;92.50;;;;;;5011953;28;20194;-87
2023/01/25 04:07:49;;;;;;;42.87;30.77;;;-0.40;92.40;;;;;;5012134;28;20186;-87
2023/01/25 04:10:14;;;;;;;51.60;36.63;;;-0.50;92.30;;;;;;5012008;28;20210;-87
2023/01/25 04:12:40;;;;;;;53.13;35.17;;;-0.60;92.60;;;;;;5012020;28;20640;-87
2023/01/25 04:15:06;;;;;;;42.27;33.67;;;-0.60;92.60;;;;;;5013084;28;20193;-87
2023/01/25 04:17:31;;;;;;;37.10;29.23;;;-0.60;92.80;;;;;;5013111;28;20201;-87
2023/01/25 04:19:57;;;;;;;45.00;32.43;;;-0.70;92.80;;;;;;5012198;28;20648;-87
2023/01/25 04:22:22;;;;;;;41.33;30.70;;;-0.80;92.80;;;;;;5013333;28;20254;-87
2023/01/25 04:24:48;;;;;;;40.00;29.97;;;-0.70;92.80;;;;;;5012987;28;20259;-87
2023/01/25 04:27:13;;;;;;;46.47;31.90;;;-0.70;92.70;;;;;;5011783;28;20186;-87
2023/01/25 04:29:39;;;;;;;46.40;35.13;;;-0.70;92.70;;;;;;5011890;28;20185;-87
2023/01/25 04:32:05;;;;;;;40.10;32.03;;;-0.70;92.70;;;;;;5011812;28;20631;-87
2023/01/25 04:34:30;;;;;;;38.47;30.20;;;-0.80;92.60;;;;;;5014756;28;20202;-87
2023/01/25 04:36:56;;;;;;;40.57;30.50;;;-0.80;92.50;;;;;;5015855;28;20639;-87
2023/01/25 04:39:21;;;;;;;40.77;32.70;;;-0.90;92.40;;;;;;5015557;28;20178;-86
2023/01/25 04:41:46;;;;;;;42.33;32.23;;;-0.90;92.20;;;;;;5017132;28;20177;-86
2023/01/25 04:44:12;;;;;;;36.90;29.97;;;-0.90;92.20;;;;;;5016706;28;20687;-86
2023/01/25 04:46:37;;;;;;;39.63;31.50;;;-0.90;92.20;;;;;;5016774;28;20240;-87
2023/01/25 04:49:03;;;;;;;43.10;33.53;;;-0.80;92.20;;;;;;5015438;28;20174;-87
2023/01/25 04:51:29;;;;;;;43.50;32.83;;;-0.90;92.00;;;;;;5015359;28;20666;-87
2023/01/25 04:53:54;;;;;;;36.73;26.53;;;-0.90;92.10;;;;;;5016441;28;20185;-87
2023/01/25 04:56:20;;;;;;;37.57;29.90;;;-0.90;91.90;;;;;;5016708;28;20167;-87
2023/01/25 04:58:45;;;;;;;45.30;32.00;;;-0.90;91.80;;;;;;5015179;28;20647;-87
2023/01/25 05:01:11;;;;;;;41.63;33.83;;;-1.00;91.70;;;;;;5016667;28;20185;-86
2023/01/25 05:03:36;;;;;;;42.70;32.33;;;-0.90;91.70;;;;;;5015199;28;20263;-86
2023/01/25 05:06:02;;;;;;;34.33;26.43;;;-0.90;91.60;;;;;;5014964;28;20194;-87
2023/01/25 05:08:27;;;;;;;41.13;31.67;;;-0.90;91.60;;;;;;5015099;28;20174;-87
2023/01/25 05:10:53;;;;;;;36.63;27.80;;;-0.90;91.60;;;;;;5014952;28;20169;-87
2023/01/25 05:13:19;;;;;;;37.77;29.97;;;-0.90;91.60;;;;;;5014949;28;20228;-87
2023/01/25 05:15:45;;;;;;;31.33;26.20;;;-0.90;91.60;;;;;;5014885;28;20193;-87
2023/01/25 05:18:10;;;;;;;38.67;30.93;;;-1.00;91.40;;;;;;5014881;28;20181;-87
2023/01/25 05:20:36;;;;;;;37.70;29.20;;;-0.90;91.50;;;;;;5014831;28;20177;-87
2023/01/25 05:23:01;;;;;;;40.13;31.20;;;-0.90;91.40;;;;;;5014711;28;20182;-87
2023/01/25 05:28:11;;;;;;;39.50;33.03;;;-1.00;91.20;;;;;;5016198;28;20168;-87
2023/01/25 05:30:36;;;;;;;40.40;31.53;;;-0.90;91.50;;;;;;5014651;28;20173;-87
2023/01/25 05:33:02;;;;;;;37.07;29.80;;;-0.90;91.40;;;;;;5014584;28;20170;-87
2023/01/25 05:35:27;;;;;;;43.97;33.10;;;-0.90;91.30;;;;;;5014378;28;20575;-87
2023/01/25 05:37:57;;;;;;;43.37;32.73;;;-0.90;91.40;;;;;;5014430;28;20215;-87
2023/01/25 05:40:24;;;;;;;33.53;27.17;;;-0.90;91.30;;;;;;5015665;28;20182;-87
2023/01/25 05:42:56;;;;;;;41.50;34.63;;;-0.90;91.30;;;;;;5015583;28;20201;-87
2023/01/25 05:45:22;;;;;;;42.20;32.37;;;-0.90;91.40;;;;;;5014112;28;20243;-87
2023/01/25 05:47:52;;;;;;;31.20;26.60;;;-0.90;91.40;;;;;;5015625;28;20170;-87
2023/01/25 05:50:18;;;;;;;39.97;31.40;;;-1.00;91.30;;;;;;5015519;28;20150;-87
2023/01/25 05:52:45;;;;;;;37.00;26.53;;;-1.00;91.20;;;;;;5014248;28;20231;-87
2023/01/25 05:55:10;;;;;;;36.70;30.70;;;-1.10;90.90;;;;;;5015581;28;20316;-87
2023/01/25 05:57:36;;;;;;;35.77;30.40;;;-1.10;90.80;;;;;;5014170;28;20184;-87
2023/01/25 06:00:03;;;;;;;40.30;28.80;;;-1.00;91.00;;;;;;5015520;28;20185;-86
2023/01/25 06:02:29;;;;;;;39.10;30.47;;;-1.00;90.90;;;;;;5014219;28;20550;-86
2023/01/25 06:04:54;;;;;;;32.80;26.93;;;-1.00;90.90;;;;;;5013788;28;20205;-86
2023/01/25 06:07:20;;;;;;;40.87;32.17;;;-1.00;90.90;;;;;;5013880;28;20296;-86
2023/01/25 06:09:45;;;;;;;31.67;26.83;;;-1.00;91.00;;;;;;5015109;28;20173;-87
2023/01/25 06:12:11;;;;;;;34.73;29.63;;;-1.00;90.90;;;;;;5015072;28;20177;-87
2023/01/25 06:14:36;;;;;;;39.00;28.90;;;-0.90;91.10;;;;;;5013671;28;20205;-86
2023/01/25 06:17:02;;;;;;;36.00;28.07;;;-1.00;91.00;;;;;;5015253;28;20701;-86
2023/01/25 06:19:27;;;;;;;35.70;27.47;;;-0.90;91.00;;;;;;5014925;28;20172;-86
2023/01/25 06:21:53;;;;;;;38.50;30.80;;;-1.00;91.00;;;;;;5014849;28;20199;-86
2023/01/25 06:24:18;;;;;;;38.43;32.63;;;-0.90;91.10;;;;;;5013921;28;20210;-86
2023/01/25 06:26:44;;;;;;;39.23;31.77;;;-0.90;91.20;;;;;;5014786;28;20235;-87
2023/01/25 06:29:09;;;;;;;36.83;31.37;;;-0.90;91.20;;;;;;5013543;28;20178;-87
2023/01/25 06:31:35;;;;;;;35.10;31.27;;;-0.90;91.20;;;;;;5014668;28;20213;-87
2023/01/25 06:34:03;;;;;;;39.17;32.10;;;-0.80;91.20;;;;;;5014491;28;20201;-87
2023/01/25 06:36:29;;;;;;;36.17;31.57;;;-0.80;91.20;;;;;;5014639;28;20651;-87
2023/01/25 06:38:54;;;;;;;37.53;31.47;;;-0.80;91.10;;;;;;5013316;28;20269;-87
2023/01/25 06:41:21;;;;;;;40.03;31.33;;;-0.80;91.00;;;;;;5013276;28;20180;-87
2023/01/25 06:43:49;;;;;;;38.70;31.57;;;-0.90;91.10;;;;;;5012793;28;20201;-87
2023/01/25 06:46:15;;;;;;;35.03;28.77;;;-0.80;91.20;;;;;;5013196;28;20177;-87
2023/01/25 06:48:41;;;;;;;32.60;28.23;;;-0.90;91.20;;;;;;5014323;28;20185;-87
2023/01/25 06:51:09;;;;;;;38.43;32.13;;;-0.90;91.30;;;;;;5014276;28;20168;-86
2023/01/25 06:53:38;;;;;;;37.10;30.97;;;-0.90;91.30;;;;;;5014279;28;20181;-87
2023/01/25 06:56:12;;;;;;;33.13;29.53;;;-0.80;91.30;;;;;;5012399;28;20549;-87
2023/01/25 06:58:39;;;;;;;37.97;32.53;;;-0.90;91.30;;;;;;5014330;28;20317;-87
2023/01/25 07:01:09;;;;;;;36.67;30.27;;;-0.80;91.30;;;;;;5012943;28;20181;-87
2023/01/25 07:03:35;;;;;;;38.00;31.53;;;-0.80;91.30;;;;;;5014346;28;20228;-87
2023/01/25 07:06:03;;;;;;;39.50;32.37;;;-0.80;91.30;;;;;;5013961;28;20200;-87
2023/01/25 07:08:29;;;;;;;39.27;32.03;;;-0.70;91.30;;;;;;5013228;28;20166;-87
2023/01/25 07:10:57;;;;;;;40.97;32.23;;;-0.70;91.30;;;;;;5014070;28;20200;-87
2023/01/25 07:13:23;;;;;;;39.90;30.87;;;-0.80;91.20;;;;;;5012754;28;20200;-87
2023/01/25 07:16:06;;;;;;;41.80;33.40;;;-0.90;91.20;;;;;;5012716;28;20670;-87
2023/01/25 07:18:32;;;;;;;43.00;34.47;;;-0.90;91.30;;;;;;5014138;28;20165;-87
2023/01/25 07:21:03;;;;;;;30.00;25.93;;;-0.80;91.40;;;;;;5012574;28;20204;-87
2023/01/25 07:23:31;;;;;;;41.23;31.33;;;-0.90;91.20;;;;;;5012703;28;20266;-87
2023/01/25 07:25:57;;;;;;;40.47;33.80;;;-1.00;91.20;;;;;;5013813;28;20197;-87
2023/01/25 07:28:22;;;;;;;43.93;35.07;;;-0.90;91.30;;;;;;5012544;28;20184;-87
2023/01/25 07:30:48;;;;;;;45.00;34.00;;;-0.80;91.30;;;;;;5013684;28;20173;-87
2023/01/25 07:33:14;;;;;;;49.37;35.67;;;-0.90;91.30;;;;;;5013779;28;20584;-87
2023/01/25 07:35:39;;;;;;;46.00;34.27;;;-0.80;91.30;;;;;;5013500;28;20212;-87
2023/01/25 07:38:05;;;;;;;44.83;35.30;;;-0.70;91.30;;;;;;5012437;28;20191;-87
2023/01/25 07:40:30;;;;;;;44.87;34.90;;;-0.80;91.20;;;;;;5012431;28;20181;-87
2023/01/25 07:42:57;;;;;;;45.93;36.03;;;-0.80;91.30;;;;;;5012198;28;20185;-87
2023/01/25 07:45:29;;;;;;;44.27;33.67;;;-0.80;91.20;;;;;;5012105;28;20305;-87
2023/01/25 07:47:55;;;;;;;47.10;36.60;;;-0.90;91.20;;;;;;5013601;28;20656;-87
2023/01/25 07:50:21;;;;;;;47.80;36.93;;;-0.90;91.20;;;;;;5012427;28;20195;-87
2023/01/25 07:52:46;;;;;;;42.00;32.93;;;-0.90;91.40;;;;;;5012191;28;20190;-87
2023/01/25 07:55:12;;;;;;;51.47;38.40;;;-0.90;91.50;;;;;;5012148;28;20208;-86
2023/01/25 07:57:37;;;;;;;51.77;39.30;;;-0.90;91.40;;;;;;5013346;28;20231;-87
2023/01/25 08:00:05;;;;;;;48.50;39.10;;;-0.80;91.50;;;;;;5012255;28;20188;-88
2023/01/25 08:02:31;;;;;;;44.17;33.23;;;-0.90;91.60;;;;;;5012216;28;20189;-87
2023/01/25 08:04:57;;;;;;;48.77;39.03;;;-0.90;91.60;;;;;;5013343;28;20204;-87
2023/01/25 08:07:22;;;;;;;52.20;37.93;;;-0.90;91.60;;;;;;5012082;28;20178;-87
2023/01/25 08:09:48;;;;;;;42.97;32.67;;;-0.90;91.80;;;;;;5016871;28;20185;-87
2023/01/25 08:12:13;;;;;;;45.10;35.00;;;-0.90;91.80;;;;;;5017622;28;20179;-88
2023/01/25 08:14:39;;;;;;;51.83;38.13;;;-0.80;91.80;;;;;;5017167;28;20203;-88
2023/01/25 08:17:05;;;;;;;56.70;42.60;;;-0.80;91.80;;;;;;5017566;28;20177;-88
2023/01/25 08:19:30;;;;;;;60.37;43.87;;;-0.70;91.80;;;;;;5017207;28;20269;-87
2023/01/25 08:21:56;;;;;;;56.73;42.13;;;-0.80;91.70;;;;;;5017474;28;20640;-88
2023/01/25 08:24:21;;;;;;;61.83;43.40;;;-0.70;91.80;;;;;;5015720;28;20217;-87
2023/01/25 08:26:47;;;;;;;52.60;39.07;;;-0.70;91.60;;;;;;5015864;28;20264;-87
2023/01/25 08:29:12;;;;;;;60.17;45.53;;;-0.60;91.70;;;;;;5015820;28;20184;-88
2023/01/25 08:31:40;;;;;;;62.60;42.77;;;-0.70;91.60;;;;;;5015704;28;20181;-88
2023/01/25 08:34:06;;;;;;;63.97;45.50;;;-0.70;91.40;;;;;;5015512;28;20208;-88
2023/01/25 08:36:32;;;;;;;62.33;43.17;;;-0.70;91.60;;;;;;5016799;28;20556;-88
2023/01/25 08:39:02;;;;;;;61.63;45.00;;;-0.70;91.70;;;;;;5016836;28;20181;-88
2023/01/25 08:41:29;;;;;;;60.97;44.50;;;-0.70;91.80;;;;;;5015573;28;20184;-88
2023/01/25 08:43:56;;;;;;;58.43;43.43;;;-0.70;91.80;;;;;;5016454;28;20231;-88
2023/01/25 08:46:23;;;;;;;58.47;43.93;;;-0.80;91.80;;;;;;5016789;28;20166;-88
2023/01/25 08:48:53;;;;;;;59.83;42.10;;;-0.80;91.80;;;;;;5016768;28;20169;-88
2023/01/25 08:51:19;;;;;;;65.93;45.73;;;-0.70;91.80;;;;;;5015425;28;20219;-87
2023/01/25 08:53:45;;;;;;;61.77;43.30;;;-0.80;91.80;;;;;;5015295;28;20190;-87
2023/01/25 08:56:12;;;;;;;64.57;46.67;;;-0.80;91.70;;;;;;5016590;28;20181;-88
2023/01/25 08:58:41;;;;;;;65.47;48.00;;;-0.80;91.70;;;;;;5015242;28;20182;-87
2023/01/25 09:01:10;;;;;;;62.97;46.47;;;-0.80;91.70;;;;;;5015198;28;20235;-88
2023/01/25 09:03:38;;;;;;;73.83;49.53;;;-0.80;91.70;;;;;;5016344;28;20217;-88
2023/01/25 09:06:04;;;;;;;64.27;42.97;;;-0.70;91.70;;;;;;5016430;28;20267;-88
2023/01/25 09:08:30;;;;;;;66.67;46.03;;;-0.80;91.50;;;;;;5015120;28;20212;-88
2023/01/25 09:11:10;;;;;;;75.33;49.47;;;-0.80;91.50;;;;;;5016319;28;20201;-88
2023/01/25 09:13:35;;;;;;;71.10;46.50;;;-0.80;91.50;;;;;;5014950;28;20565;-88
2023/01/25 09:16:07;;;;;;;68.90;48.77;;;-0.70;91.60;;;;;;5014927;28;20210;-88
2023/01/25 09:18:35;;;;;;;73.80;51.87;;;-0.70;91.60;;;;;;5015836;28;20176;-88
2023/01/25 09:21:12;;;;;;;65.87;50.53;;;-0.70;91.50;;;;;;5014685;28;20676;-88
2023/01/25 09:23:38;;;;;;;72.23;49.17;;;-0.70;91.40;;;;;;5014750;28;20205;-88
2023/01/25 09:26:04;;;;;;;71.77;48.53;;;-0.70;91.40;;;;;;5014795;28;20785;-87
2023/01/25 09:28:30;;;;;;;72.63;47.60;;;-0.70;91.40;;;;;;5015927;28;20175;-87
2023/01/25 09:31:01;;;;;;;67.43;45.10;;;-0.80;91.20;;;;;;5014810;28;20180;-87
2023/01/25 09:33:32;;;;;;;75.90;49.93;;;-0.70;91.30;;;;;;5014762;28;20174;-87
2023/01/25 09:35:59;;;;;;;75.53;48.57;;;-0.80;91.30;;;;;;5014512;28;20605;-88
2023/01/25 09:38:24;;;;;;;72.67;47.50;;;-0.70;91.40;;;;;;5014476;28;20569;-88
2023/01/25 09:41:20;;;;;;;73.50;49.53;;;-0.70;91.40;;;;;;5014434;28;20272;-88
2023/01/25 09:44:11;;;;;;;62.83;40.67;;;-0.60;91.40;;;;;;5011678;28;20220;-88
2023/01/25 09:46:47;;;;;;;67.80;45.13;;;-0.70;91.30;;;;;;5014601;28;20332;-89
2023/01/25 09:49:30;;;;;;;74.40;45.60;;;-0.70;91.30;;;;;;5014415;28;20177;-88
2023/01/25 09:52:06;;;;;;;72.13;49.47;;;-0.70;91.40;;;;;;5014449;28;20180;-88
2023/01/25 09:54:38;;;;;;;68.10;45.57;;;-0.70;91.40;;;;;;5014354;28;20202;-89
2023/01/25 09:57:07;;;;;;;70.80;46.93;;;-0.70;91.20;;;;;;5015809;28;20683;-89
2023/01/25 09:59:33;;;;;;;77.70;45.90;;;-0.90;90.90;;;;;;5014992;28;20272;-89
2023/01/25 10:02:04;;;;;;;79.40;50.20;;;-0.80;91.00;;;;;;5014075;28;20311;-88
2023/01/25 10:04:38;;;;;;;75.10;48.70;;;-0.70;91.10;;;;;;5013964;28;20385;-88
2023/01/25 10:07:17;;;;;;;71.93;48.93;;;-0.60;91.10;;;;;;5014079;28;20309;-88
2023/01/25 10:09:56;;;;;;;79.03;50.87;;;-0.60;91.00;;;;;;5014024;28;20173;-88
2023/01/25 10:12:24;;;;;;;78.93;51.03;;;-0.60;91.00;;;;;;5014015;28;20188;-88
2023/01/25 10:14:51;;;;;;;82.13;49.90;;;-0.60;90.90;;;;;;5014015;28;20256;-88
2023/01/25 10:17:40;;;;;;;77.10;51.00;;;-0.50;91.30;;;;;;5015130;28;20644;-89
2023/01/25 10:20:29;;;;;;;73.47;46.70;;;-0.50;91.20;;;;;;5013978;28;20182;-88
2023/01/25 10:23:21;;;;;;;76.43;50.00;;;-0.60;90.90;;;;;;5013652;28;20558;-88
2023/01/25 10:25:58;;;;;;;82.20;51.33;;;-0.60;91.10;;;;;;5013953;28;20212;-88
2023/01/25 10:28:48;;;;;;;80.87;52.80;;;-0.60;91.00;;;;;;5013621;28;20165;-88
2023/01/25 10:31:21;;;;;;;78.23;51.57;;;-0.60;91.00;;;;;;5012703;28;20174;-88
2023/01/25 10:33:48;;;;;;;83.77;53.17;;;-0.60;90.90;;;;;;5014692;28;20181;-88
2023/01/25 10:36:22;;;;;;;80.77;54.53;;;-0.60;90.90;;;;;;5013539;28;20216;-88
2023/01/25 10:38:48;;;;;;;74.70;47.27;;;-0.60;91.00;;;;;;5013509;28;20175;-88
2023/01/25 10:41:20;;;;;;;75.83;46.23;;;-0.60;91.10;;;;;;5013474;28;20531;-89
2023/01/25 10:43:46;;;;;;;73.30;46.30;;;-0.70;91.20;;;;;;5012998;28;20287;-88
2023/01/25 10:46:24;;;;;;;77.83;50.87;;;-0.70;91.10;;;;;;5013448;28;20595;-88
2023/01/25 10:48:49;;;;;;;80.80;51.83;;;-0.60;91.50;;;;;;5013480;28;20253;-88
2023/01/25 10:51:29;;;;;;;86.17;55.77;;;-0.60;91.40;;;;;;5014480;28;20694;-89
2023/01/25 10:54:02;;;;;;;91.80;55.47;;;-0.60;91.40;;;;;;5013091;28;20247;-88
2023/01/25 10:56:28;;;;;;;69.53;43.10;;;-0.60;91.30;;;;;;5013237;28;20227;-88
2023/01/25 10:59:17;;;;;;;88.57;55.33;;;-0.60;91.20;;;;;;5014281;28;20191;-88
2023/01/25 11:01:42;;;;;;;76.23;42.37;;;-0.60;91.40;;;;;;5014888;28;20157;-89
2023/01/25 11:04:29;;;;;;;84.80;53.03;;;-0.60;91.40;;;;;;5012929;28;20213;-88
2023/01/25 11:06:55;;;;;;;81.17;50.90;;;-0.60;91.60;;;;;;5014234;28;20160;-87
2023/01/25 11:09:21;;;;;;;63.23;38.07;;;-0.60;91.60;;;;;;5013036;28;20606;-88
2023/01/25 11:11:58;;;;;;;71.17;46.40;;;-0.60;91.60;;;;;;5013911;28;20171;-88
2023/01/25 11:14:26;;;;;;;74.73;46.07;;;-0.70;91.50;;;;;;5014246;28;20188;-88
2023/01/25 11:16:52;;;;;;;80.13;53.57;;;-0.60;91.60;;;;;;5012889;28;20182;-87
2023/01/25 11:19:39;;;;;;;85.40;54.23;;;-0.60;91.60;;;;;;5012663;28;20181;-87
2023/01/25 11:22:18;;;;;;;87.40;53.87;;;-0.50;91.70;;;;;;5012959;28;20228;-87
2023/01/25 11:24:44;;;;;;;88.07;53.87;;;-0.40;91.70;;;;;;5012533;28;20217;-87
2023/01/25 11:27:13;;;;;;;85.47;55.03;;;-0.50;91.50;;;;;;5012779;28;20543;-87
2023/01/25 11:29:39;;;;;;;84.27;51.90;;;-0.60;91.40;;;;;;5012467;28;20177;-87
2023/01/25 11:32:19;;;;;;;81.77;53.60;;;-0.50;91.40;;;;;;5012452;28;20209;-87
2023/01/25 11:34:44;;;;;;;80.40;51.80;;;-0.50;91.30;;;;;;5012333;28;20582;-88
2023/01/25 11:37:35;;;;;;;89.07;54.30;;;-0.60;91.20;;;;;;5013560;28;20182;-87
2023/01/25 11:40:14;;;;;;;82.33;50.47;;;-0.60;91.20;;;;;;5012741;28;20188;-87
2023/01/25 11:42:46;;;;;;;83.20;53.27;;;-0.60;91.20;;;;;;5013622;28;20183;-87
2023/01/25 11:45:23;;;;;;;86.20;53.50;;;-0.60;91.20;;;;;;5012035;28;20221;-87
2023/01/25 11:48:21;;;;;;;82.60;53.10;;;-0.60;91.00;;;;;;5013588;28;20165;-87
2023/01/25 11:51:05;;;;;;;87.17;54.53;;;-0.60;91.10;;;;;;5012310;28;20172;-88
2023/01/25 11:54:22;;;;;;;77.13;46.77;;;-0.60;91.20;;;;;;5013745;28;20169;-87
2023/01/25 11:56:57;;;;;;;73.90;48.27;;;-0.60;91.00;;;;;;5011503;28;20288;-88
2023/01/25 11:59:47;;;;;;;84.63;51.00;;;-0.70;91.00;;;;;;5011635;28;20194;-86
2023/01/25 12:02:45;;;;;;;73.93;44.93;;;-0.60;91.00;;;;;;5013481;28;20624;-88
2023/01/25 12:05:17;;;;;;;83.07;52.33;;;-0.70;90.70;;;;;;5012087;28;20259;-88
2023/01/25 12:07:52;;;;;;;81.93;50.33;;;-0.70;90.80;;;;;;5012098;28;20190;-88
2023/01/25 12:10:21;;;;;;;75.33;47.23;;;-0.80;90.60;;;;;;5012023;28;20177;-87
2023/01/25 12:13:15;;;;;;;78.90;50.80;;;-0.80;90.80;;;;;;5013238;28;20177;-86
2023/01/25 12:15:59;;;;;;;76.03;46.60;;;-0.80;90.90;;;;;;5011916;28;20687;-87
2023/01/25 12:19:00;;;;;;;84.80;51.90;;;-0.80;90.80;;;;;;5011983;28;20180;-87
2023/01/25 12:21:41;;;;;;;82.33;49.13;;;-0.80;90.80;;;;;;5012033;28;20259;-88
2023/01/25 12:24:36;;;;;;;79.37;50.57;;;-0.70;91.00;;;;;;5011962;28;20299;-88
2023/01/25 12:27:21;;;;;;;83.73;51.73;;;-0.80;91.00;;;;;;5011904;28;20189;-87
2023/01/25 12:29:59;;;;;;;69.43;43.13;;;-0.80;91.00;;;;;;5011965;28;20267;-87
2023/01/25 12:32:36;;;;;;;81.47;48.30;;;-0.80;91.00;;;;;;5013226;28;20161;-87
2023/01/25 12:35:11;;;;;;;93.03;55.13;;;-0.80;91.20;;;;;;5013371;28;20254;-87
2023/01/25 12:37:40;;;;;;;73.50;44.50;;;-0.70;91.20;;;;;;5011869;28;20181;-87
2023/01/25 12:40:14;;;;;;;78.40;46.20;;;-0.70;91.20;;;;;;5011763;28;20189;-86
2023/01/25 12:42:46;;;;;;;72.23;43.43;;;-0.80;91.20;;;;;;5011911;28;20177;-86
2023/01/25 12:45:21;;;;;;;87.10;54.13;;;-0.90;91.20;;;;;;5011429;28;20236;-86